Time;durP1;ratioP1;P1;durP2;ratioP2;P2;SDS_P1;SDS_P2;PMS_P1;PMS_P2;Temp;Humidity;BMP_temperature;BMP_pressure;BME280_temperature;BME280_humidity;BME280_pressure;Samples;Min_cycle;Max_cycle;Signal;HPM_P1;HPM_P2
2022/11/17 00:01:07;;;;;;;;;;;10.40;71.60;;;;;;5045909;28;87128;-38
2022/11/17 00:03:33;;;;;;;;;;;10.40;71.70;;;;;;5043034;28;87378;-38
2022/11/17 00:06:05;;;;;;;;;;;10.40;71.70;;;;;;5042640;28;87263;-38
2022/11/17 00:08:31;;;;;;;;;;;10.40;71.70;;;;;;5042676;28;87373;-38
2022/11/17 00:11:00;;;;;;;;;;;10.40;71.70;;;;;;5041736;28;89518;-38
2022/11/17 00:16:13;;;;;;;;;;;10.40;71.90;;;;;;5042756;28;87241;-38
2022/11/17 00:21:25;;;;;;;;;;;10.40;71.80;;;;;;5042650;28;86990;-38
2022/11/17 00:23:51;;;;;;;;;;;10.40;71.80;;;;;;5045022;27;88571;-38
2022/11/17 00:26:31;;;;;;;;;;;10.40;71.80;;;;;;5042323;28;87109;-38
2022/11/17 00:29:00;;;;;;;;;;;10.40;71.90;;;;;;5042992;27;87501;-38
2022/11/17 00:34:15;;;;;;;;;;;10.40;72.00;;;;;;5042772;28;86961;-38
2022/11/17 00:36:45;;;;;;;;;;;10.40;72.00;;;;;;5041680;27;87882;-38
2022/11/17 00:39:11;;;;;;;;;;;10.50;72.00;;;;;;5041982;28;87191;-38
2022/11/17 00:41:37;;;;;;;;;;;10.40;72.00;;;;;;5042420;28;87089;-38
2022/11/17 00:44:03;;;;;;;;;;;10.40;72.00;;;;;;5041758;28;87986;-38
2022/11/17 00:46:28;;;;;;;;;;;10.40;72.00;;;;;;5044727;28;89475;-38
2022/11/17 00:48:54;;;;;;;;;;;10.40;71.90;;;;;;5042172;27;88746;-38
2022/11/17 00:51:19;;;;;;;;;;;10.40;71.80;;;;;;5041769;27;88179;-38
2022/11/17 00:53:45;;;;;;;;;;;10.40;71.80;;;;;;5045882;28;86398;-38
2022/11/17 00:56:11;;;;;;;;;;;10.40;71.80;;;;;;5045895;27;87160;-38
2022/11/17 00:58:36;;;;;;;;;;;10.40;71.80;;;;;;5045482;28;89147;-38
2022/11/17 01:01:02;;;;;;;;;;;10.40;71.80;;;;;;5044927;28;88348;-38
2022/11/17 01:03:28;;;;;;;;;;;10.40;71.80;;;;;;5045628;27;88345;-38
2022/11/17 01:05:53;;;;;;;;;;;10.50;71.80;;;;;;5045381;28;87914;-38
2022/11/17 01:08:19;;;;;;;;;;;10.40;71.80;;;;;;5048555;28;87204;-38
2022/11/17 01:10:44;;;;;;;;;;;10.40;72.50;;;;;;5045342;28;87286;-38
2022/11/17 01:13:10;;;;;;;;;;;10.40;71.90;;;;;;5045435;28;87269;-38
2022/11/17 01:15:35;;;;;;;;;;;10.50;71.90;;;;;;5045643;28;87427;-38
2022/11/17 01:18:01;;;;;;;;;;;10.40;71.80;;;;;;5045674;28;87383;-38
2022/11/17 01:20:26;;;;;;;;;;;10.50;71.80;;;;;;5045192;28;87300;-38
2022/11/17 01:22:55;;;;;;;;;;;10.40;71.80;;;;;;5045364;27;87370;-38
2022/11/17 01:25:20;;;;;;;;;;;10.50;71.80;;;;;;5044297;28;89081;-38
2022/11/17 01:27:46;;;;;;;;;;;10.50;71.80;;;;;;5045253;28;87102;-38
2022/11/17 01:30:12;;;;;;;;;;;10.50;71.80;;;;;;5047749;27;87320;-38
2022/11/17 01:32:38;;;;;;;;;;;10.50;71.80;;;;;;5045310;28;87350;-38
2022/11/17 01:35:03;;;;;;;;;;;10.50;71.80;;;;;;5045279;28;87360;-38
2022/11/17 01:37:29;;;;;;;;;;;10.40;71.80;;;;;;5044812;28;88215;-38
2022/11/17 01:39:54;;;;;;;;;;;10.40;71.80;;;;;;5045141;28;87091;-38
2022/11/17 01:42:21;;;;;;;;;;;10.40;71.80;;;;;;5045507;27;87259;-38
2022/11/17 01:44:49;;;;;;;;;;;10.40;71.80;;;;;;5044016;28;87143;-38
2022/11/17 01:47:23;;;;;;;;;;;10.40;71.90;;;;;;5045106;28;87117;-38
2022/11/17 01:49:50;;;;;;;;;;;10.50;71.90;;;;;;5044348;27;87913;-38
2022/11/17 01:52:16;;;;;;;;;;;10.40;71.90;;;;;;5047232;28;87124;-38
2022/11/17 01:54:43;;;;;;;;;;;10.50;71.90;;;;;;5044944;28;87449;-38
2022/11/17 01:57:12;;;;;;;;;;;10.40;71.90;;;;;;5044448;28;88116;-38
2022/11/17 01:59:39;;;;;;;;;;;10.40;71.90;;;;;;5044657;28;86945;-38
2022/11/17 02:02:05;;;;;;;;;;;10.50;71.90;;;;;;5044605;28;87026;-38
2022/11/17 02:04:42;;;;;;;;;;;10.50;72.00;;;;;;5043422;27;88087;-38
2022/11/17 02:07:07;;;;;;;;;;;10.40;71.90;;;;;;5045150;28;86233;-38
2022/11/17 02:09:34;;;;;;;;;;;10.50;72.00;;;;;;5044776;27;86873;-38
2022/11/17 02:11:59;;;;;;;;;;;10.50;72.00;;;;;;5046926;28;87080;-38
2022/11/17 02:14:25;;;;;;;;;;;10.50;72.00;;;;;;5044193;27;88049;-38
2022/11/17 02:16:50;;;;;;;;;;;10.50;72.00;;;;;;5043961;28;89338;-38
2022/11/17 02:19:16;;;;;;;;;;;10.50;71.90;;;;;;5044590;28;87015;-38
2022/11/17 02:21:42;;;;;;;;;;;10.40;71.80;;;;;;5044316;28;87389;-38
2022/11/17 02:24:07;;;;;;;;;;;10.50;71.90;;;;;;5044258;28;87812;-38
2022/11/17 02:26:32;;;;;;;;;;;10.40;71.80;;;;;;5043983;28;87756;-38
2022/11/17 02:29:10;;;;;;;;;;;10.40;71.70;;;;;;5044332;28;87492;-38
2022/11/17 02:31:46;;;;;;;;;;;10.40;71.70;;;;;;5044539;28;87086;-38
2022/11/17 02:34:24;;;;;;;;;;;10.50;71.80;;;;;;5047251;28;87234;-38
2022/11/17 02:36:57;;;;;;;;;;;10.40;71.70;;;;;;5043847;28;88173;-38
2022/11/17 02:39:45;;;;;;;;;;;10.50;71.70;;;;;;5043219;28;88041;-38
2022/11/17 02:42:10;;;;;;;;;;;10.50;71.70;;;;;;5043810;27;88681;-38
2022/11/17 02:44:40;;;;;;;;;;;10.40;71.60;;;;;;5043565;28;87208;-38
2022/11/17 02:47:09;;;;;;;;;;;10.50;71.70;;;;;;5043799;28;87177;-38
2022/11/17 02:49:35;;;;;;;;;;;10.50;71.70;;;;;;5043703;28;87480;-38
2022/11/17 02:52:02;;;;;;;;;;;10.50;71.70;;;;;;5043549;28;87925;-38
2022/11/17 02:54:29;;;;;;;;;;;10.40;71.60;;;;;;5044055;28;87012;-38
2022/11/17 02:56:55;;;;;;;;;;;10.40;71.60;;;;;;5047017;28;87510;-38
2022/11/17 02:59:23;;;;;;;;;;;10.50;71.60;;;;;;5043956;28;87172;-38
2022/11/17 03:01:49;;;;;;;;;;;10.50;71.60;;;;;;5043807;27;87375;-38
2022/11/17 03:04:43;;;;;;;;;;;10.50;71.60;;;;;;5042741;28;89140;-38
2022/11/17 03:07:27;;;;;;;;;;;10.40;72.10;;;;;;5033528;28;87137;-38
2022/11/17 03:09:53;;;;;;;;;;;10.50;71.60;;;;;;5043778;28;87316;-38
2022/11/17 03:12:18;;;;;;;;;;;10.40;71.50;;;;;;5043118;28;89521;-38
2022/11/17 03:14:54;;;;;;;;;;;10.50;71.60;;;;;;5043262;27;87138;-38
2022/11/17 03:17:26;;;;;;;;;;;10.40;71.50;;;;;;5043586;27;86950;-38
2022/11/17 03:19:56;;;;;;;;;;;10.40;71.50;;;;;;5046101;28;88416;-38
2022/11/17 03:22:42;;;;;;;;;;;10.50;71.60;;;;;;5043796;27;87413;-38
2022/11/17 03:25:10;;;;;;;;;;;10.50;71.60;;;;;;5042874;28;87883;-38
2022/11/17 03:27:38;;;;;;;;;;;10.50;71.60;;;;;;5043358;28;87213;-38
2022/11/17 03:30:08;;;;;;;;;;;10.40;71.50;;;;;;5042763;27;87955;-38
2022/11/17 03:32:38;;;;;;;;;;;10.50;71.50;;;;;;5042807;28;90780;-38
2022/11/17 03:35:05;;;;;;;;;;;10.40;71.50;;;;;;5043193;28;87045;-38
2022/11/17 03:37:33;;;;;;;;;;;10.50;71.50;;;;;;5042984;28;88251;-38
2022/11/17 03:40:02;;;;;;;;;;;10.40;71.40;;;;;;5042934;28;88056;-38
2022/11/17 03:42:29;;;;;;;;;;;10.50;71.50;;;;;;5046023;28;87073;-38
2022/11/17 03:45:06;;;;;;;;;;;10.40;71.40;;;;;;5042142;28;88153;-38
2022/11/17 03:47:33;;;;;;;;;;;10.40;71.50;;;;;;5043827;28;86269;-38
2022/11/17 03:50:02;;;;;;;;;;;10.50;71.60;;;;;;5042914;28;87105;-38
2022/11/17 03:52:28;;;;;;;;;;;10.50;71.60;;;;;;5042371;28;88176;-38
2022/11/17 03:54:54;;;;;;;;;;;10.50;71.60;;;;;;5042198;28;88102;-38
2022/11/17 03:57:25;;;;;;;;;;;10.40;71.50;;;;;;5043279;27;88473;-38
2022/11/17 03:59:54;;;;;;;;;;;10.50;71.50;;;;;;5042866;28;88215;-38
2022/11/17 04:02:20;;;;;;;;;;;10.40;71.50;;;;;;5043115;28;87162;-39
2022/11/17 04:05:04;;;;;;;;;;;10.50;71.60;;;;;;5045142;27;87003;-39
2022/11/17 04:07:30;;;;;;;;;;;10.50;71.60;;;;;;5042664;28;86930;-38
2022/11/17 04:09:55;;;;;;;;;;;10.50;71.60;;;;;;5042809;27;87398;-38
2022/11/17 04:17:49;;;;;;;;;;;10.50;71.60;;;;;;5043019;28;87993;-38
2022/11/17 04:20:15;;;;;;;;;;;10.50;71.60;;;;;;5040277;28;90730;-38
2022/11/17 04:22:40;;;;;;;;;;;10.50;71.60;;;;;;5042341;28;87142;-38
2022/11/17 04:25:06;;;;;;;;;;;10.50;71.60;;;;;;5045208;28;86948;-38
2022/11/17 04:30:15;;;;;;;;;;;10.50;71.60;;;;;;5043744;28;87026;-38
2022/11/17 04:32:41;;;;;;;;;;;10.40;71.60;;;;;;5045885;28;88143;-38
2022/11/17 04:35:07;;;;;;;;;;;10.40;71.50;;;;;;5046339;28;86992;-38
2022/11/17 04:37:32;;;;;;;;;;;10.50;71.60;;;;;;5046577;27;87381;-38
2022/11/17 04:39:58;;;;;;;;;;;10.40;71.60;;;;;;5045622;28;87548;-38
2022/11/17 04:42:23;;;;;;;;;;;10.50;71.60;;;;;;5046012;28;87223;-38
2022/11/17 04:44:49;;;;;;;;;;;10.40;71.60;;;;;;5044988;28;88084;-38
2022/11/17 04:47:14;;;;;;;;;;;10.50;71.60;;;;;;5048628;28;87983;-39
2022/11/17 04:49:40;;;;;;;;;;;10.50;71.60;;;;;;5045942;28;87471;-39
2022/11/17 04:52:05;;;;;;;;;;;10.50;71.60;;;;;;5045660;28;87956;-39
2022/11/17 04:54:31;;;;;;;;;;;10.50;71.60;;;;;;5046025;28;87193;-39
2022/11/17 04:56:56;;;;;;;;;;;10.50;71.60;;;;;;5045636;27;88780;-39
2022/11/17 04:59:22;;;;;;;;;;;10.50;71.60;;;;;;5045668;28;88124;-39
2022/11/17 05:01:48;;;;;;;;;;;10.50;71.70;;;;;;5046296;28;86765;-39
2022/11/17 05:04:54;;;;;;;;;;;10.40;71.60;;;;;;5045794;28;86864;-38
2022/11/17 05:07:00;;;;;;;;;;;10.40;71.70;;;;;;5044857;28;88896;-38
2022/11/17 05:09:25;;;;;;;;;;;10.50;71.60;;;;;;5048216;28;88134;-39
2022/11/17 05:14:34;;;;;;;;;;;10.50;71.80;;;;;;5045571;28;87071;-39
2022/11/17 05:17:08;;;;;;;;;;;10.50;71.80;;;;;;5045477;28;87106;-39
2022/11/17 05:19:53;;;;;;;;;;;10.50;71.90;;;;;;5045241;28;88083;-39
2022/11/17 05:25:05;;;;;;;;;;;10.50;71.80;;;;;;5045623;28;87134;-38
2022/11/17 05:27:32;;;;;;;;;;;10.50;71.80;;;;;;5045573;28;87353;-39
2022/11/17 05:29:57;;;;;;;;;;;10.50;71.80;;;;;;5045404;28;87110;-38
2022/11/17 05:32:23;;;;;;;;;;;10.50;71.80;;;;;;5047733;28;87027;-38
2022/11/17 05:34:48;;;;;;;;;;;10.50;71.80;;;;;;5044279;28;88350;-39
2022/11/17 05:37:14;;;;;;;;;;;10.50;71.90;;;;;;5045283;28;88485;-38
2022/11/17 05:39:39;;;;;;;;;;;10.50;71.90;;;;;;5044962;27;87956;-38
2022/11/17 05:42:05;;;;;;;;;;;10.50;72.10;;;;;;5045173;28;87085;-38
2022/11/17 05:44:30;;;;;;;;;;;10.50;72.20;;;;;;5044632;27;88889;-38
2022/11/17 05:46:56;;;;;;;;;;;10.50;72.20;;;;;;5044867;28;88097;-38
2022/11/17 05:49:22;;;;;;;;;;;10.50;72.10;;;;;;5044611;28;87049;-38
2022/11/17 05:51:48;;;;;;;;;;;10.50;71.90;;;;;;5045005;28;88740;-38
2022/11/17 05:54:13;;;;;;;;;;;10.50;71.90;;;;;;5047550;28;87755;-38
2022/11/17 05:56:42;;;;;;;;;;;10.50;72.10;;;;;;5045010;28;87437;-39
2022/11/17 05:59:26;;;;;;;;;;;10.50;72.30;;;;;;5043960;28;87971;-38
2022/11/17 06:02:11;;;;;;;;;;;10.50;72.30;;;;;;5044261;28;87134;-38
2022/11/17 06:04:37;;;;;;;;;;;10.50;72.30;;;;;;5043934;28;87043;-38
2022/11/17 06:07:03;;;;;;;;;;;10.50;72.20;;;;;;5044355;28;88067;-38
2022/11/17 06:09:32;;;;;;;;;;;10.50;72.20;;;;;;5044636;28;87194;-38
2022/11/17 06:11:58;;;;;;;;;;;10.50;72.30;;;;;;5044702;28;87529;-38
2022/11/17 06:14:23;;;;;;;;;;;10.50;72.40;;;;;;5044013;28;88012;-38
2022/11/17 06:16:50;;;;;;;;;;;10.50;72.50;;;;;;5047958;28;86248;-38
2022/11/17 06:19:21;;;;;;;;;;;10.50;72.40;;;;;;5043946;28;88337;-38
2022/11/17 06:21:47;;;;;;;;;;;10.50;72.60;;;;;;5044274;28;87132;-38
2022/11/17 06:24:12;;;;;;;;;;;10.50;72.70;;;;;;5043998;28;87929;-38
2022/11/17 06:26:39;;;;;;;;;;;10.50;72.60;;;;;;5042487;28;89612;-38
2022/11/17 06:29:05;;;;;;;;;;;10.50;72.60;;;;;;5044305;28;87161;-38
2022/11/17 06:31:31;;;;;;;;;;;10.50;72.50;;;;;;5044372;27;87336;-38
2022/11/17 06:33:58;;;;;;;;;;;10.50;72.60;;;;;;5043536;28;89746;-38
2022/11/17 06:36:24;;;;;;;;;;;10.50;72.20;;;;;;5047062;28;87209;-38
2022/11/17 06:38:49;;;;;;;;;;;10.60;72.40;;;;;;5043822;28;88188;-38
2022/11/17 06:41:14;;;;;;;;;;;10.50;72.80;;;;;;5044741;28;86491;-38
2022/11/17 06:43:40;;;;;;;;;;;10.50;73.30;;;;;;5044109;28;86971;-39
2022/11/17 06:46:05;;;;;;;;;;;10.60;73.00;;;;;;5043607;28;87879;-39
2022/11/17 06:48:34;;;;;;;;;;;10.50;72.50;;;;;;5041947;28;87876;-39
2022/11/17 06:51:01;;;;;;;;;;;10.50;73.30;;;;;;5043188;27;89679;-39
2022/11/17 06:53:27;;;;;;;;;;;10.50;74.80;;;;;;5043212;28;89678;-40
2022/11/17 06:56:08;;;;;;;;;;;10.50;74.50;;;;;;5043967;28;87070;-39
2022/11/17 06:58:35;;;;;;;;;;;10.50;75.20;;;;;;5046447;27;88517;-39
2022/11/17 07:01:07;;;;;;;;;;;10.50;74.90;;;;;;5043954;28;86872;-39
2022/11/17 07:03:33;;;;;;;;;;;10.50;74.60;;;;;;5043760;28;88791;-40
2022/11/17 07:05:59;;;;;;;;;;;10.60;74.40;;;;;;5043824;28;87100;-40
2022/11/17 07:08:25;;;;;;;;;;;10.60;74.20;;;;;;5043721;28;88065;-40
2022/11/17 07:10:53;;;;;;;;;;;10.60;74.80;;;;;;5043270;27;87851;-39
2022/11/17 07:13:23;;;;;;;;;;;10.50;74.60;;;;;;5042338;28;90220;-39
2022/11/17 07:15:49;;;;;;;;;;;10.60;74.60;;;;;;5043451;28;87103;-40
2022/11/17 07:18:18;;;;;;;;;;;10.50;73.50;;;;;;5043439;27;88619;-40
2022/11/17 07:20:44;;;;;;;;;;;10.50;73.20;;;;;;5045809;28;88737;-40
2022/11/17 07:23:09;;;;;;;;;;;10.60;72.90;;;;;;5043126;28;88598;-39
2022/11/17 07:25:35;;;;;;;;;;;10.60;72.90;;;;;;5042950;28;87989;-40
2022/11/17 07:28:01;;;;;;;;;;;10.60;72.90;;;;;;5043182;28;87151;-40
2022/11/17 07:30:27;;;;;;;;;;;10.60;72.80;;;;;;5043823;28;87318;-40
2022/11/17 07:32:52;;;;;;;;;;;10.50;72.60;;;;;;5043094;28;87884;-39
2022/11/17 07:35:18;;;;;;;;;;;10.50;72.60;;;;;;5043358;28;87164;-40
2022/11/17 07:37:44;;;;;;;;;;;10.50;72.60;;;;;;5042535;27;88717;-39
2022/11/17 07:40:09;;;;;;;;;;;10.50;72.50;;;;;;5042538;28;87170;-40
2022/11/17 07:42:35;;;;;;;;;;;10.50;72.50;;;;;;5046239;28;87035;-40
2022/11/17 07:45:00;;;;;;;;;;;10.60;72.60;;;;;;5042217;28;88144;-40
2022/11/17 07:47:26;;;;;;;;;;;10.50;72.50;;;;;;5043095;28;86979;-40
2022/11/17 07:49:51;;;;;;;;;;;10.50;72.50;;;;;;5043206;27;87491;-40
2022/11/17 07:52:17;;;;;;;;;;;10.60;72.50;;;;;;5042299;28;89354;-40
2022/11/17 07:54:43;;;;;;;;;;;10.60;72.50;;;;;;5043363;28;86312;-40
2022/11/17 07:57:08;;;;;;;;;;;10.50;72.50;;;;;;5043179;28;87428;-40
2022/11/17 07:59:33;;;;;;;;;;;10.50;72.60;;;;;;5042691;28;87924;-40
2022/11/17 08:01:59;;;;;;;;;;;10.50;72.60;;;;;;5041262;28;88063;-40
2022/11/17 08:04:24;;;;;;;;;;;10.60;72.60;;;;;;5045499;28;88669;-40
2022/11/17 08:06:50;;;;;;;;;;;10.60;72.70;;;;;;5042939;28;87077;-40
2022/11/17 08:09:16;;;;;;;;;;;10.60;72.60;;;;;;5042579;27;88679;-40
2022/11/17 08:11:41;;;;;;;;;;;10.60;72.50;;;;;;5042011;28;89352;-39
2022/11/17 08:14:07;;;;;;;;;;;10.60;72.50;;;;;;5042782;28;87130;-40
2022/11/17 08:16:32;;;;;;;;;;;10.60;72.50;;;;;;5042791;28;87400;-40
2022/11/17 08:18:58;;;;;;;;;;;10.60;72.50;;;;;;5042677;28;87876;-40
2022/11/17 08:21:23;;;;;;;;;;;10.60;72.50;;;;;;5042392;28;86960;-40
2022/11/17 08:23:51;;;;;;;;;;;10.60;72.40;;;;;;5045347;28;87037;-40
2022/11/17 08:26:16;;;;;;;;;;;10.60;72.40;;;;;;5041682;28;88068;-40
2022/11/17 08:28:42;;;;;;;;;;;10.60;72.40;;;;;;5042632;27;88143;-40
2022/11/17 08:31:07;;;;;;;;;;;10.60;72.40;;;;;;5042334;28;88288;-40
2022/11/17 08:33:33;;;;;;;;;;;10.60;72.30;;;;;;5042724;28;87086;-40
2022/11/17 08:35:59;;;;;;;;;;;10.60;72.30;;;;;;5042595;27;87286;-40
2022/11/17 08:38:27;;;;;;;;;;;10.60;72.30;;;;;;5042029;28;87167;-40
2022/11/17 08:41:13;;;;;;;;;;;10.60;72.10;;;;;;5042099;28;87096;-39
2022/11/17 08:43:39;;;;;;;;;;;10.60;72.10;;;;;;5042537;27;87553;-39
2022/11/17 08:46:04;;;;;;;;;;;10.60;72.00;;;;;;5044722;28;87182;-40
2022/11/17 08:48:30;;;;;;;;;;;10.60;72.00;;;;;;5042377;28;87018;-39
2022/11/17 08:50:56;;;;;;;;;;;10.60;72.10;;;;;;5040926;28;90054;-40
2022/11/17 08:53:22;;;;;;;;;;;10.60;71.90;;;;;;5042195;28;87112;-39
2022/11/17 08:55:48;;;;;;;;;;;10.60;72.00;;;;;;5042122;27;87873;-39
2022/11/17 08:58:14;;;;;;;;;;;10.60;71.90;;;;;;5041654;28;89143;-40
2022/11/17 09:00:39;;;;;;;;;;;10.70;71.90;;;;;;5042254;28;87161;-40
2022/11/17 09:03:06;;;;;;;;;;;10.60;71.80;;;;;;5042043;27;88852;-40
2022/11/17 09:05:34;;;;;;;;;;;10.60;71.90;;;;;;5041723;28;88126;-40
2022/11/17 09:07:59;;;;;;;;;;;10.70;71.80;;;;;;5045195;28;86425;-40
2022/11/17 09:10:25;;;;;;;;;;;10.60;71.70;;;;;;5041647;28;87207;-40
2022/11/17 09:12:53;;;;;;;;;;;10.70;71.70;;;;;;5042516;27;87027;-40
2022/11/17 09:15:19;;;;;;;;;;;10.60;71.60;;;;;;5044895;28;88016;-40
2022/11/17 09:17:46;;;;;;;;;;;10.70;71.70;;;;;;5045263;28;87951;-40
2022/11/17 09:20:12;;;;;;;;;;;10.60;71.60;;;;;;5045299;28;87119;-40
2022/11/17 09:22:38;;;;;;;;;;;10.70;71.70;;;;;;5045094;27;87066;-40
2022/11/17 09:25:03;;;;;;;;;;;10.70;71.70;;;;;;5044972;28;88154;-40
2022/11/17 09:27:29;;;;;;;;;;;10.60;71.80;;;;;;5045354;28;87118;-40
2022/11/17 09:29:54;;;;;;;;;;;10.70;71.80;;;;;;5048006;28;87499;-40
2022/11/17 09:32:20;;;;;;;;;;;10.70;72.00;;;;;;5045901;28;86390;-39
2022/11/17 09:34:45;;;;;;;;;;;10.70;71.90;;;;;;5045329;28;87010;-40
2022/11/17 09:37:11;;;;;;;;;;;10.70;72.10;;;;;;5044497;28;89296;-39
2022/11/17 09:39:36;;;;;;;;;;;10.70;71.90;;;;;;5044475;28;88080;-40
2022/11/17 09:42:02;;;;;;;;;;;10.70;72.00;;;;;;5045171;28;88618;-40
2022/11/17 09:44:30;;;;;;;;;;;10.60;72.10;;;;;;5044246;28;88088;-39
2022/11/17 09:46:56;;;;;;;;;;;10.70;72.00;;;;;;5044992;28;87195;-40
2022/11/17 09:49:21;;;;;;;;;;;10.70;72.10;;;;;;5044841;27;88543;-40
2022/11/17 09:51:48;;;;;;;;;;;10.70;72.10;;;;;;5047387;28;88108;-40
2022/11/17 09:54:27;;;;;;;;;;;10.70;72.10;;;;;;5045064;27;87399;-40
2022/11/17 09:56:55;;;;;;;;;;;10.70;72.00;;;;;;5044767;28;87594;-39
2022/11/17 09:59:22;;;;;;;;;;;10.70;72.10;;;;;;5044734;28;86886;-40
2022/11/17 10:01:48;;;;;;;;;;;10.70;72.30;;;;;;5044772;27;87433;-39
2022/11/17 10:04:15;;;;;;;;;;;10.70;72.20;;;;;;5043705;28;88736;-39
2022/11/17 10:06:43;;;;;;;;;;;10.70;72.10;;;;;;5044344;28;86995;-39
2022/11/17 10:09:09;;;;;;;;;;;10.70;72.30;;;;;;5044639;27;87375;-39
2022/11/17 10:11:36;;;;;;;;;;;10.70;72.10;;;;;;5044090;28;88560;-39
2022/11/17 10:14:14;;;;;;;;;;;10.70;72.10;;;;;;5047524;28;87225;-39
2022/11/17 10:16:48;;;;;;;;;;;10.70;72.20;;;;;;5044143;28;87200;-39
2022/11/17 10:19:18;;;;;;;;;;;10.70;72.10;;;;;;5044537;28;87066;-39
2022/11/17 10:21:44;;;;;;;;;;;10.70;72.20;;;;;;5044823;27;88566;-39
2022/11/17 10:24:10;;;;;;;;;;;10.70;72.30;;;;;;5044070;27;88093;-39
2022/11/17 10:26:44;;;;;;;;;;;10.70;72.20;;;;;;5043966;28;87027;-39
2022/11/17 10:29:11;;;;;;;;;;;10.70;72.20;;;;;;5044054;27;87915;-39
2022/11/17 10:31:39;;;;;;;;;;;10.70;72.20;;;;;;5043716;28;87948;-39
2022/11/17 10:34:04;;;;;;;;;;;10.70;72.30;;;;;;5047087;28;87082;-39
2022/11/17 10:36:31;;;;;;;;;;;10.70;72.20;;;;;;5044137;28;87302;-39
2022/11/17 10:38:58;;;;;;;;;;;10.70;72.20;;;;;;5044258;28;87118;-39
2022/11/17 10:41:23;;;;;;;;;;;10.70;72.30;;;;;;5044303;28;87427;-39
2022/11/17 10:43:54;;;;;;;;;;;10.70;72.10;;;;;;5043435;28;88002;-39
2022/11/17 10:46:21;;;;;;;;;;;10.80;72.20;;;;;;5044508;28;86395;-39
2022/11/17 10:48:59;;;;;;;;;;;10.80;72.20;;;;;;5043948;28;88071;-39
2022/11/17 10:51:26;;;;;;;;;;;10.80;72.20;;;;;;5043531;28;87984;-39
2022/11/17 10:54:10;;;;;;;;;;;10.80;72.60;;;;;;5043110;28;88060;-39
2022/11/17 10:56:40;;;;;;;;;;;10.80;72.20;;;;;;5046339;27;88446;-39
2022/11/17 10:59:08;;;;;;;;;;;10.80;72.20;;;;;;5043697;28;87215;-39
2022/11/17 11:01:38;;;;;;;;;;;10.80;72.10;;;;;;5043982;28;87417;-39
2022/11/17 11:04:05;;;;;;;;;;;10.80;72.10;;;;;;5043444;28;88049;-39
2022/11/17 11:06:31;;;;;;;;;;;10.80;72.20;;;;;;5043803;28;87080;-39
2022/11/17 11:08:59;;;;;;;;;;;10.80;72.10;;;;;;5043752;28;87540;-39
2022/11/17 11:11:27;;;;;;;;;;;10.90;72.20;;;;;;5043519;28;87594;-39
2022/11/17 11:13:58;;;;;;;;;;;10.80;72.20;;;;;;5043483;28;87067;-39
2022/11/17 11:16:25;;;;;;;;;;;10.80;72.40;;;;;;5043529;28;87321;-39
2022/11/17 11:18:51;;;;;;;;;;;10.80;72.30;;;;;;5045377;28;89024;-39
2022/11/17 11:21:23;;;;;;;;;;;10.80;72.30;;;;;;5043508;27;89475;-39
2022/11/17 11:24:00;;;;;;;;;;;10.80;72.30;;;;;;5043144;28;88114;-39
2022/11/17 11:26:38;;;;;;;;;;;10.90;72.40;;;;;;5043538;28;87046;-39
2022/11/17 11:29:40;;;;;;;;;;;10.80;72.20;;;;;;5043349;27;87362;-39
2022/11/17 11:32:11;;;;;;;;;;;10.90;72.30;;;;;;4999999;28;89203;-39
2022/11/17 11:34:37;;;;;;;;;;;10.80;72.30;;;;;;5036412;28;87332;-39
2022/11/17 11:37:12;;;;;;;;;;;10.80;72.50;;;;;;5043831;27;87216;-39
2022/11/17 11:39:46;;;;;;;;;;;10.80;72.50;;;;;;5042931;28;87798;-39
2022/11/17 11:42:15;;;;;;;;;;;10.80;72.50;;;;;;5046449;28;87878;-39
2022/11/17 11:44:59;;;;;;;;;;;10.90;72.50;;;;;;5041269;28;88738;-39
2022/11/17 11:47:43;;;;;;;;;;;10.80;72.60;;;;;;5043311;27;87358;-39
2022/11/17 11:50:17;;;;;;;;;;;10.80;72.50;;;;;;5043182;27;87033;-39
2022/11/17 11:52:45;;;;;;;;;;;10.80;72.50;;;;;;5042221;28;89916;-39
2022/11/17 11:55:17;;;;;;;;;;;10.90;72.70;;;;;;5042647;28;87011;-39
2022/11/17 11:58:06;;;;;;;;;;;10.80;72.70;;;;;;5042782;28;87833;-39
2022/11/17 12:00:32;;;;;;;;;;;10.90;72.50;;;;;;5036541;28;87196;-39
2022/11/17 12:03:12;;;;;;;;;;;10.90;72.80;;;;;;5043318;28;86331;-39
2022/11/17 12:05:37;;;;;;;;;;;10.90;72.50;;;;;;5045337;27;87166;-39
2022/11/17 12:08:09;;;;;;;;;;;10.90;72.80;;;;;;5043011;28;87273;-39
2022/11/17 12:13:55;;;;;;;;;;;10.90;72.90;;;;;;4999653;28;87139;-39
2022/11/17 12:16:34;;;;;;;;;;;10.90;73.00;;;;;;5039404;28;87187;-39
2022/11/17 12:19:00;;;;;;;;;;;10.80;72.80;;;;;;5042688;28;86955;-39
2022/11/17 12:21:26;;;;;;;;;;;10.90;73.50;;;;;;5042089;28;89338;-39
2022/11/17 12:23:54;;;;;;;;;;;10.90;72.90;;;;;;5042701;28;86907;-39
2022/11/17 12:26:21;;;;;;;;;;;10.90;73.00;;;;;;5042787;28;86825;-39
2022/11/17 12:28:47;;;;;;;;;;;10.90;72.80;;;;;;5045485;28;87559;-39
2022/11/17 12:31:31;;;;;;;;;;;10.90;72.90;;;;;;5042312;27;87372;-39
2022/11/17 12:33:59;;;;;;;;;;;10.90;72.90;;;;;;5042331;27;86995;-39
2022/11/17 12:36:30;;;;;;;;;;;10.90;73.10;;;;;;5042060;28;88175;-39
2022/11/17 12:38:56;;;;;;;;;;;10.90;72.90;;;;;;5042279;28;90044;-39
2022/11/17 12:41:40;;;;;;;;;;;10.90;72.90;;;;;;5041979;28;87886;-39
2022/11/17 12:44:24;;;;;;;;;;;10.90;72.90;;;;;;5042199;27;87294;-39
2022/11/17 12:46:54;;;;;;;;;;;10.90;73.20;;;;;;5042532;27;87383;-39
2022/11/17 12:49:26;;;;;;;;;;;10.90;72.90;;;;;;5047297;27;88148;-39
2022/11/17 12:51:56;;;;;;;;;;;11.00;73.10;;;;;;5046114;27;87434;-39
2022/11/17 12:54:37;;;;;;;;;;;11.00;73.10;;;;;;5046038;28;88284;-39
2022/11/17 12:57:12;;;;;;;;;;;11.00;73.10;;;;;;5045725;28;87000;-39
2022/11/17 12:59:43;;;;;;;;;;;11.00;73.10;;;;;;5045878;27;87273;-39
2022/11/17 13:02:21;;;;;;;;;;;11.00;72.90;;;;;;5044673;28;89016;-39
2022/11/17 13:04:48;;;;;;;;;;;11.00;72.80;;;;;;5045618;28;87044;-39
2022/11/17 13:07:21;;;;;;;;;;;11.10;73.20;;;;;;5045628;28;87718;-39
2022/11/17 13:09:55;;;;;;;;;;;11.00;72.90;;;;;;5045316;28;87600;-39
2022/11/17 13:12:24;;;;;;;;;;;11.00;73.00;;;;;;5048267;28;86995;-39
2022/11/17 13:14:53;;;;;;;;;;;11.00;72.70;;;;;;5043769;28;89474;-39
2022/11/17 13:17:20;;;;;;;;;;;11.10;73.30;;;;;;5045339;28;87094;-39
2022/11/17 13:19:46;;;;;;;;;;;11.10;73.00;;;;;;5046205;27;87413;-39
2022/11/17 13:22:12;;;;;;;;;;;11.10;73.00;;;;;;5044696;28;87908;-39
2022/11/17 13:24:39;;;;;;;;;;;11.10;73.50;;;;;;5045193;28;87111;-39
2022/11/17 13:27:14;;;;;;;;;;;11.10;73.10;;;;;;5044869;27;87918;-39
2022/11/17 13:29:40;;;;;;;;;;;11.10;73.70;;;;;;5045211;28;88345;-39
2022/11/17 13:32:13;;;;;;;;;;;11.00;73.20;;;;;;5044859;28;87159;-39
2022/11/17 13:34:52;;;;;;;;;;;11.10;73.60;;;;;;5047981;28;87708;-39
2022/11/17 13:37:19;;;;;;;;;;;11.10;73.80;;;;;;5045108;28;87053;-39
2022/11/17 13:39:55;;;;;;;;;;;11.10;73.80;;;;;;5045198;27;87353;-39
2022/11/17 13:42:22;;;;;;;;;;;11.00;73.50;;;;;;5043328;28;88719;-39
2022/11/17 13:44:47;;;;;;;;;;;11.10;73.80;;;;;;5045250;28;86416;-39
2022/11/17 13:47:17;;;;;;;;;;;11.10;73.50;;;;;;5045093;27;86943;-39
2022/11/17 13:49:42;;;;;;;;;;;11.10;73.70;;;;;;5044803;28;88192;-39
2022/11/17 13:52:29;;;;;;;;;;;11.10;73.90;;;;;;5044080;28;88216;-39
2022/11/17 13:54:55;;;;;;;;;;;11.10;73.60;;;;;;5045082;28;87597;-39
2022/11/17 13:57:28;;;;;;;;;;;11.10;73.50;;;;;;5047946;28;88169;-39
2022/11/17 13:59:54;;;;;;;;;;;11.10;73.40;;;;;;5043445;28;87273;-39
2022/11/17 14:02:19;;;;;;;;;;;11.10;73.70;;;;;;5044620;28;88039;-39
2022/11/17 14:05:03;;;;;;;;;;;11.10;73.90;;;;;;5044905;28;87164;-39
2022/11/17 14:07:29;;;;;;;;;;;11.10;73.80;;;;;;5044865;28;87393;-39
2022/11/17 14:10:15;;;;;;;;;;;11.20;73.70;;;;;;5044779;28;88814;-39
2022/11/17 14:12:40;;;;;;;;;;;11.10;73.70;;;;;;5036330;28;87214;-39
2022/11/17 14:15:26;;;;;;;;;;;11.10;74.00;;;;;;5044622;28;87055;-39
2022/11/17 14:17:52;;;;;;;;;;;11.20;73.90;;;;;;5043042;28;88948;-39
2022/11/17 14:20:24;;;;;;;;;;;11.20;74.00;;;;;;5047348;28;87142;-39
2022/11/17 14:23:02;;;;;;;;;;;11.20;74.20;;;;;;5043802;28;87772;-39
2022/11/17 14:25:28;;;;;;;;;;;11.20;74.30;;;;;;5044539;28;87078;-39
2022/11/17 14:27:54;;;;;;;;;;;11.10;74.10;;;;;;5044171;27;87283;-39
2022/11/17 14:30:19;;;;;;;;;;;11.10;74.20;;;;;;5043735;28;89212;-39
2022/11/17 14:32:45;;;;;;;;;;;11.10;74.20;;;;;;5044255;28;87171;-39
2022/11/17 14:35:11;;;;;;;;;;;11.10;74.20;;;;;;5044718;28;86476;-39
2022/11/17 14:37:37;;;;;;;;;;;11.20;74.40;;;;;;5044045;28;88092;-39
2022/11/17 14:40:04;;;;;;;;;;;11.20;74.30;;;;;;5044421;28;87114;-39
2022/11/17 14:42:30;;;;;;;;;;;11.20;74.10;;;;;;5045978;27;88079;-39
2022/11/17 14:44:55;;;;;;;;;;;11.10;74.20;;;;;;5043568;28;86999;-40
2022/11/17 14:47:21;;;;;;;;;;;11.10;74.10;;;;;;5044155;28;87414;-38
2022/11/17 14:49:46;;;;;;;;;;;11.20;74.20;;;;;;5043835;28;88007;-39